Time;durP1;ratioP1;P1;durP2;ratioP2;P2;SDS_P1;SDS_P2;PMS_P1;PMS_P2;Temp;Humidity;BMP_temperature;BMP_pressure;BME280_temperature;BME280_humidity;BME280_pressure;Samples;Min_cycle;Max_cycle;Signal;HPM_P1;HPM_P2
2021/07/19 00:00:24;;;;;;;5.85;2.67;;;16.30;99.90;;;;;;5020465;28;20029;-66
2021/07/19 00:02:54;;;;;;;7.38;2.97;;;16.20;99.90;;;;;;5028654;28;20025;-66
2021/07/19 00:05:20;;;;;;;7.50;3.33;;;16.20;99.90;;;;;;5029096;28;20438;-66
2021/07/19 00:07:45;;;;;;;4.97;3.33;;;16.20;99.90;;;;;;5017142;28;20030;-66
2021/07/19 00:10:13;;;;;;;4.68;2.50;;;16.00;99.90;;;;;;5022370;28;20090;-66
2021/07/19 00:12:39;;;;;;;6.72;3.00;;;16.00;99.90;;;;;;5024256;28;20048;-66
2021/07/19 00:15:10;;;;;;;7.82;2.80;;;16.00;99.90;;;;;;5028785;28;20481;-66
2021/07/19 00:17:35;;;;;;;9.77;4.25;;;15.90;99.90;;;;;;5028179;28;20404;-66
2021/07/19 00:20:02;;;;;;;6.22;3.63;;;15.90;99.90;;;;;;5028442;28;20034;-66
2021/07/19 00:22:27;;;;;;;4.85;3.35;;;15.90;99.90;;;;;;5024247;28;20495;-66
2021/07/19 00:24:53;;;;;;;5.53;3.03;;;15.80;99.90;;;;;;5018403;28;20038;-66
2021/07/19 00:27:18;;;;;;;7.18;3.15;;;15.80;99.90;;;;;;5017569;28;20034;-66
2021/07/19 00:29:44;;;;;;;6.13;3.42;;;15.70;99.90;;;;;;5020877;28;20037;-66
2021/07/19 00:32:10;;;;;;;6.05;3.53;;;15.60;99.90;;;;;;5020358;28;20389;-66
2021/07/19 00:34:35;;;;;;;6.25;3.10;;;15.70;99.90;;;;;;5027838;28;20040;-66
2021/07/19 00:37:03;;;;;;;7.40;2.95;;;15.60;99.90;;;;;;5026436;28;20506;-66
2021/07/19 00:39:29;;;;;;;7.78;4.00;;;15.60;99.90;;;;;;5023524;28;20033;-66
2021/07/19 00:41:55;;;;;;;5.38;3.22;;;15.50;99.90;;;;;;5027334;28;20117;-66
2021/07/19 00:44:20;;;;;;;6.55;3.60;;;15.50;99.90;;;;;;5024461;28;20370;-66
2021/07/19 00:46:51;;;;;;;5.32;3.42;;;15.40;99.90;;;;;;5031756;28;20036;-66
2021/07/19 00:49:17;;;;;;;8.00;3.45;;;15.40;99.90;;;;;;5028051;28;20029;-66
2021/07/19 00:51:42;;;;;;;7.60;3.42;;;15.30;99.90;;;;;;5028033;28;20380;-66
2021/07/19 00:54:10;;;;;;;7.85;3.97;;;15.30;99.90;;;;;;5029618;28;20017;-66
2021/07/19 00:56:38;;;;;;;5.22;3.20;;;15.20;99.90;;;;;;5021988;28;20109;-66
2021/07/19 00:59:06;;;;;;;5.47;3.63;;;15.20;99.90;;;;;;5029053;28;20053;-66
2021/07/19 01:01:33;;;;;;;4.97;3.50;;;15.10;99.90;;;;;;5034125;28;20391;-66
2021/07/19 01:04:01;;;;;;;10.05;3.95;;;15.10;99.90;;;;;;5029149;28;20050;-66
2021/07/19 01:06:29;;;;;;;6.28;4.13;;;15.00;99.90;;;;;;5032371;28;20034;-66
2021/07/19 01:08:57;;;;;;;7.03;3.58;;;15.00;99.90;;;;;;5032649;28;20037;-65
2021/07/19 01:11:23;;;;;;;8.02;3.42;;;15.00;99.90;;;;;;5033420;28;20082;-66
2021/07/19 01:13:49;;;;;;;6.28;3.97;;;15.00;99.90;;;;;;5032140;28;20429;-66
2021/07/19 01:16:16;;;;;;;6.75;3.13;;;14.90;99.90;;;;;;5019670;28;20030;-66
2021/07/19 01:18:42;;;;;;;6.93;3.60;;;14.90;99.90;;;;;;5030970;28;20045;-66
2021/07/19 01:21:35;;;;;;;8.13;4.10;;;14.80;99.90;;;;;;5017395;28;20048;-66
2021/07/19 01:24:16;;;;;;;7.78;4.60;;;14.80;99.90;;;;;;5029543;28;20025;-66
2021/07/19 01:27:00;;;;;;;6.10;3.90;;;14.90;99.90;;;;;;5025702;28;20025;-66
2021/07/19 01:29:26;;;;;;;6.88;3.78;;;14.80;99.90;;;;;;5031699;28;20074;-66
2021/07/19 01:31:52;;;;;;;12.00;5.00;;;14.80;99.90;;;;;;5034207;28;20034;-66
2021/07/19 01:34:27;;;;;;;9.40;4.30;;;14.80;99.90;;;;;;5025800;28;20448;-66
2021/07/19 01:36:59;;;;;;;8.82;5.03;;;14.80;99.90;;;;;;5023928;28;20117;-66
2021/07/19 01:39:27;;;;;;;6.65;4.60;;;14.70;99.90;;;;;;5022166;28;20065;-65
2021/07/19 01:41:54;;;;;;;11.30;5.47;;;14.70;99.90;;;;;;5029451;28;20029;-66
2021/07/19 01:44:20;;;;;;;10.02;5.20;;;14.60;99.90;;;;;;5027585;28;20503;-65
2021/07/19 01:46:48;;;;;;;10.10;5.45;;;14.70;99.90;;;;;;5031972;28;20476;-66
2021/07/19 01:49:14;;;;;;;7.93;5.72;;;14.60;99.90;;;;;;5026614;28;20036;-65
2021/07/19 01:51:40;;;;;;;10.10;5.43;;;14.60;99.90;;;;;;5019127;28;21728;-66
2021/07/19 01:54:06;;;;;;;7.90;5.45;;;14.50;99.90;;;;;;5028975;28;20124;-66
2021/07/19 01:56:32;;;;;;;7.75;5.18;;;14.50;99.90;;;;;;5034052;28;20059;-66
2021/07/19 01:58:59;;;;;;;12.13;5.10;;;14.50;99.90;;;;;;5026900;28;20060;-66
2021/07/19 02:01:26;;;;;;;9.98;5.07;;;14.50;99.90;;;;;;5033314;28;20391;-66
2021/07/19 02:03:52;;;;;;;9.93;5.25;;;14.50;99.90;;;;;;5017546;28;20030;-65
2021/07/19 02:06:18;;;;;;;9.13;5.35;;;14.50;99.90;;;;;;5028145;28;20487;-67
2021/07/19 02:08:45;;;;;;;7.70;4.38;;;14.50;99.90;;;;;;5020283;28;20044;-66
2021/07/19 02:11:11;;;;;;;9.50;4.97;;;14.50;99.90;;;;;;5023010;28;20052;-67
2021/07/19 02:13:43;;;;;;;8.95;4.53;;;14.40;99.90;;;;;;5020294;28;20030;-66
2021/07/19 02:16:10;;;;;;;7.70;4.70;;;14.40;99.90;;;;;;5031124;28;20079;-66
2021/07/19 02:18:39;;;;;;;8.32;5.18;;;14.30;99.90;;;;;;5022012;28;20034;-66
2021/07/19 02:21:05;;;;;;;9.93;6.13;;;14.30;99.90;;;;;;5017096;28;20104;-66
2021/07/19 02:23:33;;;;;;;9.77;5.88;;;14.30;99.90;;;;;;5020540;28;20017;-66
2021/07/19 02:26:00;;;;;;;9.57;5.50;;;14.30;99.90;;;;;;5031519;28;20472;-66
2021/07/19 02:28:26;;;;;;;9.60;5.93;;;14.30;99.90;;;;;;5031722;28;20427;-66
2021/07/19 02:30:53;;;;;;;9.32;6.00;;;14.30;99.90;;;;;;5028373;28;20021;-66
2021/07/19 02:33:20;;;;;;;8.52;5.78;;;14.30;99.90;;;;;;5030022;28;20412;-66
2021/07/19 02:35:48;;;;;;;13.43;6.13;;;14.20;99.90;;;;;;5026567;28;20514;-66
2021/07/19 02:38:15;;;;;;;12.00;5.50;;;14.20;99.90;;;;;;5031294;28;20033;-66
2021/07/19 02:40:42;;;;;;;10.73;6.07;;;14.20;99.90;;;;;;5032360;28;20037;-66
2021/07/19 02:43:09;;;;;;;10.20;6.20;;;14.20;99.90;;;;;;5030983;28;20392;-66
2021/07/19 02:45:38;;;;;;;11.75;7.05;;;14.20;99.90;;;;;;5024881;28;20022;-66
2021/07/19 02:48:05;;;;;;;12.10;6.28;;;14.20;99.90;;;;;;5031749;28;20061;-66
2021/07/19 02:50:34;;;;;;;9.60;6.35;;;14.20;99.90;;;;;;5030992;28;20068;-66
2021/07/19 02:53:06;;;;;;;11.55;5.97;;;14.20;99.90;;;;;;5030912;28;20017;-66
2021/07/19 02:55:33;;;;;;;12.85;6.78;;;14.20;99.90;;;;;;5022296;28;20108;-66
2021/07/19 02:58:03;;;;;;;11.23;6.90;;;14.10;99.90;;;;;;5028571;28;20075;-66
2021/07/19 03:00:29;;;;;;;12.98;6.90;;;14.10;99.90;;;;;;5029527;28;20041;-66
2021/07/19 03:02:58;;;;;;;12.80;7.20;;;14.10;99.90;;;;;;5029726;28;20018;-66
2021/07/19 03:05:30;;;;;;;14.68;7.47;;;14.10;99.90;;;;;;5023518;28;20486;-66
2021/07/19 03:07:58;;;;;;;12.70;7.70;;;14.10;99.90;;;;;;5026724;28;20028;-66
2021/07/19 03:10:27;;;;;;;11.13;6.43;;;14.10;99.90;;;;;;5025982;28;20048;-66
2021/07/19 03:13:01;;;;;;;13.82;7.82;;;14.10;99.90;;;;;;5046638;28;20152;-66
2021/07/19 03:15:29;;;;;;;15.40;8.68;;;14.10;99.90;;;;;;5021828;28;20061;-66
2021/07/19 03:17:56;;;;;;;11.95;7.22;;;14.10;99.90;;;;;;5028430;28;20060;-66
2021/07/19 03:20:23;;;;;;;15.32;7.72;;;14.10;99.90;;;;;;5027874;28;20528;-66
2021/07/19 03:22:52;;;;;;;12.15;7.32;;;14.10;99.90;;;;;;5025277;28;20030;-66
2021/07/19 03:25:18;;;;;;;11.45;6.88;;;14.10;99.90;;;;;;5022707;28;20033;-66
2021/07/19 03:27:44;;;;;;;13.90;7.88;;;14.10;99.90;;;;;;5016602;28;20048;-66
2021/07/19 03:30:12;;;;;;;12.43;7.07;;;14.10;99.90;;;;;;5026352;28;20033;-66
2021/07/19 03:32:39;;;;;;;13.35;6.55;;;14.00;99.90;;;;;;5019184;28;20029;-66
2021/07/19 03:35:06;;;;;;;15.77;7.75;;;14.00;99.90;;;;;;5030296;28;20079;-66
2021/07/19 03:37:32;;;;;;;13.45;7.32;;;14.00;99.90;;;;;;5030145;28;20379;-66
2021/07/19 03:39:59;;;;;;;11.23;6.85;;;14.00;99.90;;;;;;5027370;28;20391;-66
2021/07/19 03:42:26;;;;;;;13.50;7.50;;;14.00;99.90;;;;;;5023539;28;20490;-66
2021/07/19 03:44:52;;;;;;;12.18;6.47;;;14.00;99.90;;;;;;5029102;28;20456;-66
2021/07/19 03:47:19;;;;;;;9.82;7.05;;;14.00;99.90;;;;;;5029825;28;20079;-66
2021/07/19 03:49:46;;;;;;;13.85;6.95;;;14.00;99.90;;;;;;5018446;28;20040;-66
2021/07/19 03:52:13;;;;;;;12.07;7.15;;;14.00;99.90;;;;;;5022181;28;20038;-66
2021/07/19 03:54:38;;;;;;;11.85;7.53;;;14.00;99.90;;;;;;5031087;28;20411;-66
2021/07/19 03:57:04;;;;;;;10.13;6.88;;;14.00;99.90;;;;;;5031710;28;20040;-66
2021/07/19 03:59:32;;;;;;;12.13;7.10;;;14.00;99.90;;;;;;5026159;28;20026;-66
2021/07/19 04:02:06;;;;;;;14.50;7.80;;;14.00;99.90;;;;;;5032979;28;20028;-66
2021/07/19 04:04:50;;;;;;;14.02;7.57;;;14.00;99.90;;;;;;5028770;28;20025;-66
2021/07/19 04:07:16;;;;;;;11.65;7.32;;;14.00;99.90;;;;;;5027772;28;20030;-66
2021/07/19 04:09:42;;;;;;;13.25;7.60;;;14.10;99.90;;;;;;5019336;28;20022;-66
2021/07/19 04:12:14;;;;;;;11.05;7.38;;;14.10;99.90;;;;;;5030337;28;20061;-66
2021/07/19 04:14:40;;;;;;;12.60;7.40;;;14.20;99.90;;;;;;5029864;28;20054;-66
2021/07/19 04:17:08;;;;;;;12.68;7.28;;;14.20;99.90;;;;;;5021217;28;20399;-66
2021/07/19 04:19:33;;;;;;;16.95;8.43;;;14.20;99.90;;;;;;5031726;28;20088;-66
2021/07/19 04:21:59;;;;;;;15.00;8.82;;;14.20;99.90;;;;;;5022682;28;20425;-66
2021/07/19 04:24:25;;;;;;;16.08;8.55;;;14.20;99.90;;;;;;5027786;28;20033;-66
2021/07/19 04:26:52;;;;;;;11.43;7.88;;;14.30;99.90;;;;;;5036719;28;20475;-66
2021/07/19 04:29:24;;;;;;;13.52;7.40;;;14.30;99.90;;;;;;5029189;28;20041;-66
2021/07/19 04:31:55;;;;;;;13.88;7.57;;;14.30;99.90;;;;;;5026703;28;20379;-66
2021/07/19 04:34:35;;;;;;;9.82;6.82;;;14.40;99.90;;;;;;5032859;28;20108;-66
2021/07/19 04:37:02;;;;;;;13.10;7.07;;;14.40;99.90;;;;;;5032325;28;20037;-66
2021/07/19 04:39:28;;;;;;;13.65;7.80;;;14.40;99.90;;;;;;5032294;28;20025;-66
2021/07/19 04:41:55;;;;;;;15.25;7.95;;;14.40;99.90;;;;;;5028812;28;20490;-66
2021/07/19 04:44:21;;;;;;;16.25;7.80;;;14.50;99.90;;;;;;5032763;28;20025;-66
2021/07/19 04:46:46;;;;;;;11.98;7.57;;;14.50;99.90;;;;;;5034375;28;20117;-66
2021/07/19 04:49:12;;;;;;;13.02;6.82;;;14.50;99.90;;;;;;5031187;28;20116;-66
2021/07/19 04:51:38;;;;;;;12.18;7.65;;;14.60;99.90;;;;;;5027823;28;20093;-66
2021/07/19 04:54:06;;;;;;;16.67;8.15;;;14.70;99.90;;;;;;5035569;28;20025;-66
2021/07/19 04:56:33;;;;;;;11.38;7.47;;;14.70;99.90;;;;;;5023024;28;20025;-65
2021/07/19 04:59:02;;;;;;;12.05;7.85;;;14.70;99.90;;;;;;5019209;28;20029;-65
2021/07/19 05:01:29;;;;;;;12.32;7.10;;;14.80;99.90;;;;;;5030517;28;20505;-65
2021/07/19 05:03:56;;;;;;;9.93;6.80;;;14.80;99.90;;;;;;5031388;28;20124;-65
2021/07/19 05:06:25;;;;;;;10.35;6.93;;;14.90;99.90;;;;;;5033362;28;20029;-65
2021/07/19 05:08:51;;;;;;;11.93;7.30;;;15.00;99.90;;;;;;5031089;28;20112;-65
2021/07/19 05:11:19;;;;;;;12.02;7.13;;;15.20;99.90;;;;;;5022139;28;20110;-65
2021/07/19 05:13:46;;;;;;;10.30;6.90;;;15.40;99.90;;;;;;5034416;28;20033;-65
2021/07/19 05:16:12;;;;;;;13.15;6.88;;;15.50;99.90;;;;;;5027805;28;20472;-65
2021/07/19 05:18:39;;;;;;;12.13;6.60;;;15.60;99.90;;;;;;5028299;28;20057;-65
2021/07/19 05:21:05;;;;;;;9.60;6.00;;;15.80;99.90;;;;;;5024343;28;20030;-65
2021/07/19 05:23:31;;;;;;;7.03;5.30;;;16.10;99.90;;;;;;5022461;28;20086;-65
2021/07/19 05:25:56;;;;;;;6.20;4.43;;;16.40;99.90;;;;;;5034404;28;20507;-65
2021/07/19 05:28:22;;;;;;;10.02;5.63;;;16.70;99.90;;;;;;5029968;28;20112;-65
2021/07/19 05:30:50;;;;;;;11.13;5.72;;;17.00;99.90;;;;;;5022130;28;20060;-65
2021/07/19 05:33:18;;;;;;;8.70;5.60;;;17.40;99.90;;;;;;5034080;28;20030;-66
2021/07/19 05:35:44;;;;;;;8.98;5.28;;;17.70;99.90;;;;;;5027897;28;20037;-65
2021/07/19 05:38:09;;;;;;;9.57;5.53;;;17.90;99.90;;;;;;5031291;28;20018;-65
2021/07/19 05:40:36;;;;;;;9.82;4.85;;;18.00;99.90;;;;;;5017444;28;20091;-65
2021/07/19 05:43:02;;;;;;;10.68;6.22;;;18.10;99.90;;;;;;5033003;28;20017;-65
2021/07/19 05:45:28;;;;;;;10.27;5.35;;;18.20;99.90;;;;;;5033221;28;20391;-65
2021/07/19 05:47:54;;;;;;;7.32;5.15;;;18.20;99.90;;;;;;5031478;28;20033;-65
2021/07/19 05:50:20;;;;;;;16.45;5.68;;;18.30;99.90;;;;;;5023482;28;20419;-65
2021/07/19 05:52:46;;;;;;;9.85;6.15;;;18.50;99.90;;;;;;5034729;28;20034;-66
2021/07/19 05:55:12;;;;;;;11.35;6.78;;;18.60;99.70;;;;;;5028345;28;20485;-66
2021/07/19 05:57:38;;;;;;;15.10;7.55;;;18.70;99.20;;;;;;5028194;28;20033;-67
2021/07/19 06:00:08;;;;;;;10.55;6.35;;;18.80;98.80;;;;;;5025317;28;20030;-67
2021/07/19 06:02:33;;;;;;;10.70;6.00;;;18.80;98.30;;;;;;5022585;28;20400;-67
2021/07/19 06:04:59;;;;;;;16.08;6.88;;;18.80;98.10;;;;;;5026155;28;20024;-67
2021/07/19 06:07:25;;;;;;;8.60;5.97;;;18.90;97.90;;;;;;5014044;28;20034;-68
2021/07/19 06:09:51;;;;;;;10.80;5.60;;;18.90;97.60;;;;;;5030588;28;20043;-67
2021/07/19 06:12:16;;;;;;;10.27;5.82;;;18.80;97.20;;;;;;5029548;28;20041;-68
2021/07/19 06:14:42;;;;;;;8.38;5.82;;;18.80;97.10;;;;;;5033349;28;20086;-67
2021/07/19 06:17:07;;;;;;;11.45;5.60;;;18.60;97.00;;;;;;5033713;28;20086;-67
2021/07/19 06:19:33;;;;;;;11.07;5.97;;;18.50;97.20;;;;;;5031273;28;20052;-67
2021/07/19 06:21:59;;;;;;;9.82;5.85;;;18.40;97.50;;;;;;5027904;28;20502;-68
2021/07/19 06:24:24;;;;;;;10.90;5.30;;;18.50;97.60;;;;;;5029992;28;20025;-68
2021/07/19 06:26:50;;;;;;;12.00;7.05;;;18.50;97.50;;;;;;5032999;28;20036;-66
2021/07/19 06:29:15;;;;;;;10.75;5.40;;;18.60;97.50;;;;;;5024879;28;20970;-66
2021/07/19 06:31:41;;;;;;;10.07;5.47;;;18.70;97.40;;;;;;5026602;28;20087;-67
2021/07/19 06:34:08;;;;;;;11.27;5.68;;;18.80;97.20;;;;;;5030654;28;20418;-66
2021/07/19 06:36:34;;;;;;;11.13;6.07;;;18.90;97.00;;;;;;5014632;28;20061;-66
2021/07/19 06:39:00;;;;;;;9.20;6.03;;;19.00;96.90;;;;;;5018720;28;20540;-66
2021/07/19 06:41:25;;;;;;;9.38;5.78;;;19.10;96.70;;;;;;5032441;28;20037;-66
2021/07/19 06:43:51;;;;;;;9.05;5.28;;;19.10;96.40;;;;;;5020707;28;20029;-67
2021/07/19 06:46:16;;;;;;;8.02;5.45;;;19.20;96.30;;;;;;5028193;28;20088;-67
2021/07/19 06:48:42;;;;;;;9.48;5.28;;;19.20;96.00;;;;;;5014023;28;20099;-67
2021/07/19 06:51:07;;;;;;;9.85;4.93;;;19.30;95.70;;;;;;5013139;28;20459;-66
2021/07/19 06:53:33;;;;;;;8.75;5.07;;;19.40;95.70;;;;;;5018090;28;20091;-67
2021/07/19 06:55:58;;;;;;;10.23;5.75;;;19.50;95.40;;;;;;5034142;28;20028;-67
2021/07/19 06:58:24;;;;;;;7.70;4.55;;;19.60;95.00;;;;;;5033598;28;20035;-67
2021/07/19 07:00:50;;;;;;;7.63;4.72;;;19.70;94.60;;;;;;5031212;28;20036;-67
2021/07/19 07:03:16;;;;;;;9.80;5.40;;;19.80;94.30;;;;;;5032560;28;20025;-68
2021/07/19 07:05:41;;;;;;;9.43;5.97;;;19.80;93.60;;;;;;5033513;28;20032;-68
2021/07/19 07:08:07;;;;;;;10.13;5.93;;;20.00;92.90;;;;;;5028246;28;20036;-66
2021/07/19 07:10:32;;;;;;;9.18;5.82;;;20.10;92.70;;;;;;5032501;28;20034;-66
2021/07/19 07:12:58;;;;;;;10.07;6.45;;;20.20;92.30;;;;;;5033381;28;20381;-67
2021/07/19 07:15:24;;;;;;;10.65;6.35;;;20.40;91.90;;;;;;5032406;28;20111;-67
2021/07/19 07:17:50;;;;;;;9.38;6.07;;;20.50;91.30;;;;;;5033210;28;20091;-67
2021/07/19 07:20:17;;;;;;;9.73;6.40;;;20.70;91.10;;;;;;5027630;28;20480;-67
2021/07/19 07:22:43;;;;;;;10.70;7.38;;;20.90;90.70;;;;;;5033777;28;20126;-67
2021/07/19 07:25:09;;;;;;;13.70;6.80;;;21.00;90.60;;;;;;5031354;28;20052;-67
2021/07/19 07:27:36;;;;;;;13.13;6.72;;;21.10;90.10;;;;;;5031290;28;20499;-67
2021/07/19 07:30:05;;;;;;;11.35;7.25;;;21.10;89.60;;;;;;5033431;28;20029;-66
2021/07/19 07:32:30;;;;;;;12.07;7.50;;;21.00;88.80;;;;;;5021556;28;20056;-67
2021/07/19 07:34:56;;;;;;;9.52;6.43;;;20.90;87.50;;;;;;5030613;28;20483;-67
2021/07/19 07:37:22;;;;;;;11.02;6.95;;;21.00;88.20;;;;;;5032600;28;20449;-67
2021/07/19 07:39:47;;;;;;;11.70;7.78;;;21.10;87.70;;;;;;5016470;28;20030;-67
2021/07/19 07:42:13;;;;;;;11.13;7.72;;;21.20;86.20;;;;;;5022482;28;20487;-67
2021/07/19 07:44:39;;;;;;;13.32;7.65;;;21.20;85.00;;;;;;5026604;28;20051;-67
2021/07/19 07:47:05;;;;;;;9.80;6.90;;;21.30;84.60;;;;;;5030277;28;20037;-67
2021/07/19 07:49:30;;;;;;;11.75;7.47;;;21.40;84.80;;;;;;5031717;28;20038;-66
2021/07/19 07:51:58;;;;;;;13.00;8.57;;;21.40;84.30;;;;;;5032315;28;20057;-67
2021/07/19 07:54:24;;;;;;;12.18;7.32;;;21.50;84.10;;;;;;5031532;28;20052;-66
2021/07/19 07:56:49;;;;;;;9.35;6.75;;;21.50;83.80;;;;;;5026378;28;20368;-68
2021/07/19 07:59:15;;;;;;;9.30;6.60;;;21.50;83.10;;;;;;5028525;28;20032;-69
2021/07/19 08:01:40;;;;;;;9.55;6.45;;;21.50;83.90;;;;;;5029789;28;20403;-67
2021/07/19 08:04:06;;;;;;;12.02;7.35;;;21.50;84.40;;;;;;5030205;28;20036;-68
2021/07/19 08:06:31;;;;;;;10.15;6.13;;;21.70;84.60;;;;;;5032344;28;20508;-67
2021/07/19 08:08:57;;;;;;;10.55;5.85;;;21.80;84.80;;;;;;5030944;28;20031;-68
2021/07/19 08:11:22;;;;;;;8.98;6.20;;;22.00;84.80;;;;;;5021218;28;20117;-67
2021/07/19 08:13:48;;;;;;;9.15;6.05;;;22.10;84.30;;;;;;5019559;28;20057;-67
2021/07/19 08:16:14;;;;;;;10.50;5.97;;;22.20;83.70;;;;;;5033041;28;20037;-68
2021/07/19 08:18:39;;;;;;;9.10;5.93;;;22.30;83.40;;;;;;5029731;28;20046;-68
2021/07/19 08:21:05;;;;;;;8.32;5.85;;;22.30;83.30;;;;;;5030810;28;20025;-68
2021/07/19 08:23:31;;;;;;;8.05;5.45;;;22.40;80.80;;;;;;5031977;28;20100;-67
2021/07/19 08:25:56;;;;;;;9.13;6.25;;;22.30;80.90;;;;;;5032415;28;20025;-66
2021/07/19 08:28:22;;;;;;;10.07;6.43;;;22.30;80.90;;;;;;5032452;28;20053;-68
2021/07/19 08:30:47;;;;;;;11.10;6.15;;;22.20;81.20;;;;;;5032802;28;20080;-67
2021/07/19 08:33:13;;;;;;;7.78;4.95;;;22.10;80.90;;;;;;5031970;28;20025;-67
2021/07/19 08:35:39;;;;;;;10.65;5.50;;;22.10;81.50;;;;;;5030528;28;20472;-68
2021/07/19 08:38:06;;;;;;;8.85;5.65;;;21.90;81.50;;;;;;5032215;28;20029;-69
2021/07/19 08:40:32;;;;;;;7.20;5.15;;;21.90;81.60;;;;;;5032923;28;20108;-68
2021/07/19 08:42:58;;;;;;;8.25;5.13;;;22.00;81.50;;;;;;5032428;28;20022;-67
2021/07/19 08:45:24;;;;;;;7.85;5.30;;;22.10;80.90;;;;;;5031728;28;20017;-67
2021/07/19 08:47:51;;;;;;;7.88;5.10;;;22.20;80.30;;;;;;5030922;28;20036;-66
2021/07/19 08:50:19;;;;;;;9.57;5.90;;;22.20;80.40;;;;;;5031944;28;20464;-67
2021/07/19 08:52:53;;;;;;;8.30;5.38;;;22.30;79.90;;;;;;5021257;28;20030;-66
2021/07/19 08:55:19;;;;;;;12.35;6.40;;;22.30;79.70;;;;;;5030344;28;20057;-67
2021/07/19 08:57:47;;;;;;;7.25;4.30;;;22.20;80.10;;;;;;5013069;28;20034;-67
2021/07/19 09:00:14;;;;;;;8.15;4.63;;;22.10;80.30;;;;;;5030545;28;20479;-67
2021/07/19 09:02:39;;;;;;;7.88;5.30;;;22.20;80.80;;;;;;5030400;28;20018;-67
2021/07/19 09:05:05;;;;;;;6.60;4.10;;;22.30;80.80;;;;;;5029508;28;20028;-67
2021/07/19 09:07:32;;;;;;;7.00;4.38;;;22.40;80.20;;;;;;5033686;28;20112;-67
2021/07/19 09:09:59;;;;;;;9.73;4.70;;;22.50;80.40;;;;;;5035898;28;20476;-67
2021/07/19 09:12:33;;;;;;;6.45;4.07;;;22.60;79.50;;;;;;5034582;28;20035;-67
2021/07/19 09:14:59;;;;;;;7.63;4.50;;;22.70;79.40;;;;;;5015806;28;20034;-67
2021/07/19 09:17:27;;;;;;;5.85;4.32;;;22.70;79.30;;;;;;5024205;28;20528;-67
2021/07/19 09:19:54;;;;;;;6.68;3.92;;;22.70;80.00;;;;;;5035734;28;20039;-67
2021/07/19 09:22:31;;;;;;;8.27;4.63;;;22.70;79.30;;;;;;5036351;28;20021;-66
2021/07/19 09:25:07;;;;;;;7.50;4.82;;;22.70;78.60;;;;;;5034277;28;20119;-67
2021/07/19 09:27:39;;;;;;;8.85;4.35;;;22.70;79.30;;;;;;5031899;28;20030;-68
2021/07/19 09:30:15;;;;;;;;;;;22.90;78.80;;;;;;5036251;28;20466;-67
2021/07/19 09:33:00;;;;;;;9.07;4.90;;;23.10;78.80;;;;;;5022043;28;19905;-67
2021/07/19 09:35:27;;;;;;;8.35;4.80;;;23.20;77.10;;;;;;5016161;28;20034;-68
2021/07/19 09:37:54;;;;;;;9.70;5.82;;;23.20;76.70;;;;;;5027600;28;20080;-67
2021/07/19 09:40:32;;;;;;;14.10;7.40;;;23.40;77.30;;;;;;5035068;28;20029;-67
2021/07/19 09:42:59;;;;;;;9.48;5.47;;;23.30;74.60;;;;;;5030798;28;20571;-68
2021/07/19 09:45:32;;;;;;;12.85;6.32;;;23.30;75.20;;;;;;5050574;28;20038;-67
2021/07/19 09:48:06;;;;;;;9.88;5.60;;;23.40;74.20;;;;;;5033648;28;20026;-68
2021/07/19 09:50:42;;;;;;;10.90;5.80;;;23.30;73.50;;;;;;5025976;28;20392;-67
2021/07/19 09:53:08;;;;;;;9.20;5.10;;;23.30;74.20;;;;;;5019466;28;20037;-67
2021/07/19 09:55:34;;;;;;;8.65;5.15;;;23.30;73.50;;;;;;5035042;28;20130;-67
2021/07/19 09:58:01;;;;;;;9.32;5.78;;;23.30;73.40;;;;;;5034732;28;20025;-66
2021/07/19 10:00:30;;;;;;;8.57;5.35;;;23.30;72.80;;;;;;5034129;28;20029;-67
2021/07/19 10:02:56;;;;;;;10.00;5.47;;;23.40;73.60;;;;;;5034284;28;20499;-66
2021/07/19 10:05:31;;;;;;;8.15;5.47;;;23.60;73.50;;;;;;5032672;28;20087;-66
2021/07/19 10:08:01;;;;;;;9.07;5.65;;;23.60;71.50;;;;;;5015333;28;20026;-66
2021/07/19 10:10:36;;;;;;;7.53;4.97;;;23.50;71.10;;;;;;5015131;28;20054;-66
2021/07/19 10:13:04;;;;;;;9.73;5.90;;;23.50;72.20;;;;;;5014953;28;20485;-66
2021/07/19 10:15:31;;;;;;;8.27;5.57;;;23.70;71.40;;;;;;5024348;28;20043;-66
2021/07/19 10:17:58;;;;;;;9.02;5.65;;;23.90;69.90;;;;;;5034214;28;20136;-66
2021/07/19 10:20:24;;;;;;;9.73;6.57;;;23.90;70.80;;;;;;5033805;28;20056;-66
2021/07/19 10:22:50;;;;;;;7.60;5.47;;;24.10;70.80;;;;;;5033467;28;20116;-66
2021/07/19 10:25:16;;;;;;;8.45;5.78;;;24.20;70.50;;;;;;5034519;28;20045;-66
2021/07/19 10:27:43;;;;;;;8.73;5.85;;;24.40;70.10;;;;;;5033949;28;20447;-66
2021/07/19 10:30:09;;;;;;;9.38;5.70;;;24.60;69.60;;;;;;5034833;28;20078;-66
2021/07/19 10:32:36;;;;;;;8.55;5.38;;;24.70;69.40;;;;;;5030613;28;20021;-66
2021/07/19 10:35:03;;;;;;;7.00;4.72;;;24.90;69.90;;;;;;5033516;28;20061;-66
2021/07/19 10:37:52;;;;;;;7.35;5.30;;;25.10;68.80;;;;;;5030852;28;20110;-66
2021/07/19 10:40:32;;;;;;;9.60;6.43;;;25.20;67.50;;;;;;5032876;28;20021;-66
2021/07/19 10:43:15;;;;;;;9.48;7.05;;;25.10;67.00;;;;;;5032542;28;20056;-66
2021/07/19 10:45:53;;;;;;;9.75;6.68;;;24.80;66.80;;;;;;5034411;28;20026;-67
2021/07/19 10:48:26;;;;;;;8.02;6.35;;;24.60;66.80;;;;;;5033135;28;20032;-67
2021/07/19 10:50:53;;;;;;;9.07;6.55;;;24.50;68.40;;;;;;5023308;28;20053;-66
2021/07/19 10:53:21;;;;;;;12.75;6.50;;;24.40;67.80;;;;;;5032502;28;20031;-66
2021/07/19 10:56:05;;;;;;;8.32;6.18;;;24.40;68.80;;;;;;5034072;28;20108;-67
2021/07/19 10:58:40;;;;;;;9.98;7.45;;;24.40;68.70;;;;;;5014576;28;20072;-66
2021/07/19 11:01:21;;;;;;;10.38;5.88;;;24.50;67.90;;;;;;5029737;28;20022;-66
2021/07/19 11:03:47;;;;;;;12.75;6.05;;;24.70;68.20;;;;;;5033060;28;20036;-66
2021/07/19 11:06:13;;;;;;;9.60;6.07;;;24.80;67.40;;;;;;5034100;28;20411;-67
2021/07/19 11:08:50;;;;;;;8.18;5.97;;;24.90;66.70;;;;;;5034027;28;20026;-66
2021/07/19 11:11:26;;;;;;;10.48;5.93;;;25.10;66.00;;;;;;5033752;28;20017;-67
2021/07/19 11:13:57;;;;;;;8.90;6.57;;;25.00;65.30;;;;;;5033022;28;20124;-67
2021/07/19 11:16:23;;;;;;;11.23;5.95;;;25.00;66.10;;;;;;5032222;28;20036;-67
2021/07/19 11:18:56;;;;;;;11.85;6.93;;;25.00;65.80;;;;;;5033234;28;20399;-66
2021/07/19 11:21:24;;;;;;;8.82;6.35;;;24.90;65.50;;;;;;5033918;28;20396;-67
2021/07/19 11:23:49;;;;;;;9.90;6.78;;;24.90;65.80;;;;;;5014876;28;20029;-66
2021/07/19 11:26:25;;;;;;;9.77;6.45;;;25.00;65.60;;;;;;5013556;28;20052;-67
2021/07/19 11:28:57;;;;;;;12.38;6.90;;;25.00;66.20;;;;;;5014445;28;20034;-66
2021/07/19 11:31:28;;;;;;;9.25;6.50;;;25.10;65.50;;;;;;5033422;28;20555;-67
2021/07/19 11:34:03;;;;;;;11.68;6.90;;;25.20;65.40;;;;;;5033503;28;20075;-66
2021/07/19 11:36:31;;;;;;;8.93;6.68;;;25.30;65.40;;;;;;5032746;28;20038;-67
2021/07/19 11:39:01;;;;;;;10.48;6.88;;;25.30;63.90;;;;;;5033150;28;20111;-68
2021/07/19 11:41:35;;;;;;;8.90;6.53;;;25.30;64.40;;;;;;5031930;28;20029;-67
2021/07/19 11:44:03;;;;;;;10.00;7.18;;;25.20;64.40;;;;;;5031978;28;20376;-67
2021/07/19 11:46:34;;;;;;;10.70;7.13;;;25.20;64.60;;;;;;5033179;28;20022;-67
2021/07/19 11:49:09;;;;;;;10.00;7.47;;;25.20;64.80;;;;;;5033050;28;20032;-67
2021/07/19 11:51:35;;;;;;;11.27;6.72;;;25.10;64.80;;;;;;5032376;28;20025;-67
2021/07/19 11:54:01;;;;;;;10.20;7.50;;;25.10;64.60;;;;;;5031489;28;20499;-66
2021/07/19 11:56:28;;;;;;;11.50;7.65;;;25.00;65.40;;;;;;5031579;28;20025;-67
2021/07/19 11:58:59;;;;;;;11.65;6.93;;;25.10;64.90;;;;;;5031869;28;20537;-66
2021/07/19 12:01:34;;;;;;;8.52;6.22;;;25.20;65.30;;;;;;5032897;28;20037;-66
2021/07/19 12:04:05;;;;;;;10.43;7.15;;;25.30;65.20;;;;;;5033081;28;20025;-67
2021/07/19 12:06:32;;;;;;;9.18;6.75;;;25.40;64.10;;;;;;5024691;28;20480;-67
2021/07/19 12:09:05;;;;;;;10.90;7.05;;;25.30;63.90;;;;;;5031468;28;20033;-67
2021/07/19 12:11:32;;;;;;;10.43;7.47;;;25.20;63.70;;;;;;5033323;28;20021;-66
2021/07/19 12:14:00;;;;;;;11.30;7.53;;;25.10;64.30;;;;;;5032779;28;20440;-67
2021/07/19 12:16:40;;;;;;;10.95;7.05;;;25.00;64.20;;;;;;5032840;28;20017;-67
2021/07/19 12:19:06;;;;;;;8.57;6.47;;;25.00;64.60;;;;;;5030496;28;20504;-67
2021/07/19 12:21:43;;;;;;;14.02;7.53;;;25.00;65.50;;;;;;5032898;28;20048;-67
2021/07/19 12:24:10;;;;;;;11.15;7.32;;;24.90;65.60;;;;;;5032913;28;20476;-70
2021/07/19 12:26:40;;;;;;;11.65;7.80;;;24.90;65.80;;;;;;5030017;28;20124;-67
2021/07/19 12:29:12;;;;;;;12.18;7.85;;;24.90;66.00;;;;;;5032630;28;20025;-67
2021/07/19 12:31:40;;;;;;;11.48;7.75;;;25.00;66.20;;;;;;5032605;28;20060;-66
2021/07/19 12:34:08;;;;;;;13.82;7.38;;;25.10;66.90;;;;;;5022691;28;20092;-67
2021/07/19 12:36:38;;;;;;;11.57;8.75;;;25.30;65.70;;;;;;5023907;28;20030;-66
2021/07/19 12:39:09;;;;;;;14.25;7.63;;;25.50;64.10;;;;;;5029627;28;20044;-66
2021/07/19 12:41:36;;;;;;;10.20;6.72;;;25.50;64.10;;;;;;5020273;28;20024;-67
2021/07/19 12:44:06;;;;;;;11.35;7.38;;;25.40;64.80;;;;;;5042790;28;20030;-67
2021/07/19 12:46:44;;;;;;;9.55;7.00;;;25.20;64.90;;;;;;5045113;28;20056;-67